Terminal Aerodrome Forecast
Issued by NWS Louisville, KY

Home | Current Version | Previous Version | Text Only | Print | Product List | Glossary On
Versions: 1 2 3 4 5 6 7 8 9 10 11 12 13 14 15 16 17 18 19 20
194
FTUS43 KLMK 230818 AAA
TAFBWG
TAF AMD
KBWG 230818Z 2308/2406 19005KT P6SM BKN040
     FM231100 19007KT 6SM BR BKN015
      TEMPO 2312/2316 3SM BR BKN007
     FM231800 19008KT P6SM SCT025 BKN035=

USA.gov is the U.S. government's official web portal to all federal, state and local government web resources and services.